sensor_id;sensor_type;location;lat;lon;timestamp;temperature;humidity
51950;DHT22;37974;53.218;6.640;2023-06-14T00:01:48;15.70;91.30
51950;DHT22;37974;53.218;6.640;2023-06-14T00:04:14;15.70;91.40
51950;DHT22;37974;53.218;6.640;2023-06-14T00:06:57;15.70;91.50
51950;DHT22;37974;53.218;6.640;2023-06-14T00:09:23;15.10;91.40
51950;DHT22;37974;53.218;6.640;2023-06-14T00:11:48;15.50;91.60
51950;DHT22;37974;53.218;6.640;2023-06-14T00:14:14;15.50;91.90
51950;DHT22;37974;53.218;6.640;2023-06-14T00:16:41;15.50;92.10
51950;DHT22;37974;53.218;6.640;2023-06-14T00:19:08;15.40;92.30
51950;DHT22;37974;53.218;6.640;2023-06-14T00:21:36;15.40;92.50
51950;DHT22;37974;53.218;6.640;2023-06-14T00:24:02;15.40;92.60
51950;DHT22;37974;53.218;6.640;2023-06-14T00:26:27;15.30;92.80
51950;DHT22;37974;53.218;6.640;2023-06-14T00:28:54;15.20;93.00
51950;DHT22;37974;53.218;6.640;2023-06-14T00:31:22;15.20;93.20
51950;DHT22;37974;53.218;6.640;2023-06-14T00:33:48;15.10;93.40
51950;DHT22;37974;53.218;6.640;2023-06-14T00:36:13;15.10;93.70
51950;DHT22;37974;53.218;6.640;2023-06-14T00:38:39;15.10;93.90
51950;DHT22;37974;53.218;6.640;2023-06-14T00:41:05;15.00;94.10
51950;DHT22;37974;53.218;6.640;2023-06-14T00:43:31;15.00;94.40
51950;DHT22;37974;53.218;6.640;2023-06-14T00:45:56;15.00;94.60
51950;DHT22;37974;53.218;6.640;2023-06-14T00:48:23;14.90;94.80
51950;DHT22;37974;53.218;6.640;2023-06-14T00:50:50;14.90;95.10
51950;DHT22;37974;53.218;6.640;2023-06-14T00:53:18;14.80;95.30
51950;DHT22;37974;53.218;6.640;2023-06-14T00:55:46;14.80;95.60
51950;DHT22;37974;53.218;6.640;2023-06-14T00:58:12;14.80;96.00
51950;DHT22;37974;53.218;6.640;2023-06-14T01:00:39;14.70;96.20
51950;DHT22;37974;53.218;6.640;2023-06-14T01:03:04;14.70;96.50
51950;DHT22;37974;53.218;6.640;2023-06-14T01:05:31;14.70;96.80
51950;DHT22;37974;53.218;6.640;2023-06-14T01:08:24;14.60;97.00
51950;DHT22;37974;53.218;6.640;2023-06-14T01:10:59;14.60;97.30
51950;DHT22;37974;53.218;6.640;2023-06-14T01:13:42;14.60;97.40
51950;DHT22;37974;53.218;6.640;2023-06-14T01:16:09;14.60;97.70
51950;DHT22;37974;53.218;6.640;2023-06-14T01:18:35;14.60;98.00
51950;DHT22;37974;53.218;6.640;2023-06-14T01:21:01;14.60;98.20
51950;DHT22;37974;53.218;6.640;2023-06-14T01:23:31;14.50;98.40
51950;DHT22;37974;53.218;6.640;2023-06-14T01:25:58;14.50;98.70
51950;DHT22;37974;53.218;6.640;2023-06-14T01:28:25;14.50;98.90
51950;DHT22;37974;53.218;6.640;2023-06-14T01:30:54;14.50;99.20
51950;DHT22;37974;53.218;6.640;2023-06-14T01:33:24;14.50;99.40
51950;DHT22;37974;53.218;6.640;2023-06-14T01:35:52;14.40;99.70
51950;DHT22;37974;53.218;6.640;2023-06-14T01:38:21;14.40;99.90
51950;DHT22;37974;53.218;6.640;2023-06-14T01:40:48;14.40;99.90
51950;DHT22;37974;53.218;6.640;2023-06-14T01:43:16;14.40;99.90
51950;DHT22;37974;53.218;6.640;2023-06-14T01:45:45;14.40;99.90
51950;DHT22;37974;53.218;6.640;2023-06-14T01:48:11;14.40;99.90
51950;DHT22;37974;53.218;6.640;2023-06-14T01:50:37;14.40;99.90
51950;DHT22;37974;53.218;6.640;2023-06-14T01:53:07;14.30;99.90
51950;DHT22;37974;53.218;6.640;2023-06-14T01:55:36;14.30;99.90
51950;DHT22;37974;53.218;6.640;2023-06-14T01:58:04;14.30;99.90
51950;DHT22;37974;53.218;6.640;2023-06-14T02:00:30;14.30;99.90
51950;DHT22;37974;53.218;6.640;2023-06-14T02:02:56;14.20;99.90
51950;DHT22;37974;53.218;6.640;2023-06-14T02:05:22;14.20;99.90
51950;DHT22;37974;53.218;6.640;2023-06-14T02:07:47;14.20;99.90
51950;DHT22;37974;53.218;6.640;2023-06-14T02:10:13;14.20;99.90
51950;DHT22;37974;53.218;6.640;2023-06-14T02:12:40;14.20;99.90
51950;DHT22;37974;53.218;6.640;2023-06-14T02:15:06;14.20;99.90
51950;DHT22;37974;53.218;6.640;2023-06-14T02:17:32;14.10;99.90
51950;DHT22;37974;53.218;6.640;2023-06-14T02:19:58;14.10;99.90
51950;DHT22;37974;53.218;6.640;2023-06-14T02:22:25;14.10;99.90
51950;DHT22;37974;53.218;6.640;2023-06-14T02:24:50;14.00;99.90
51950;DHT22;37974;53.218;6.640;2023-06-14T02:27:17;14.00;99.90
51950;DHT22;37974;53.218;6.640;2023-06-14T02:29:43;14.00;99.90
51950;DHT22;37974;53.218;6.640;2023-06-14T02:32:09;14.00;99.90
51950;DHT22;37974;53.218;6.640;2023-06-14T02:34:35;14.00;99.90
51950;DHT22;37974;53.218;6.640;2023-06-14T02:37:02;13.90;99.90
51950;DHT22;37974;53.218;6.640;2023-06-14T02:39:29;13.90;99.90
51950;DHT22;37974;53.218;6.640;2023-06-14T02:41:55;13.90;99.90
51950;DHT22;37974;53.218;6.640;2023-06-14T02:44:24;13.90;99.90
51950;DHT22;37974;53.218;6.640;2023-06-14T02:46:57;13.90;99.90
51950;DHT22;37974;53.218;6.640;2023-06-14T02:49:24;13.90;99.90
51950;DHT22;37974;53.218;6.640;2023-06-14T02:51:50;13.90;99.90
51950;DHT22;37974;53.218;6.640;2023-06-14T02:54:20;14.00;99.90
51950;DHT22;37974;53.218;6.640;2023-06-14T02:56:45;14.00;99.90
51950;DHT22;37974;53.218;6.640;2023-06-14T02:59:11;14.00;99.90
51950;DHT22;37974;53.218;6.640;2023-06-14T03:01:39;14.10;99.90
51950;DHT22;37974;53.218;6.640;2023-06-14T03:04:07;14.10;99.90
51950;DHT22;37974;53.218;6.640;2023-06-14T03:06:33;14.10;99.90
51950;DHT22;37974;53.218;6.640;2023-06-14T03:09:00;14.10;99.90
51950;DHT22;37974;53.218;6.640;2023-06-14T03:11:27;14.10;99.90
51950;DHT22;37974;53.218;6.640;2023-06-14T03:13:53;14.10;99.90
51950;DHT22;37974;53.218;6.640;2023-06-14T03:16:19;14.10;99.90
51950;DHT22;37974;53.218;6.640;2023-06-14T03:18:49;14.10;99.90
51950;DHT22;37974;53.218;6.640;2023-06-14T03:21:21;13.90;99.90
51950;DHT22;37974;53.218;6.640;2023-06-14T03:23:47;14.10;99.90
51950;DHT22;37974;53.218;6.640;2023-06-14T03:26:14;14.20;99.90
51950;DHT22;37974;53.218;6.640;2023-06-14T03:28:41;14.20;99.90
51950;DHT22;37974;53.218;6.640;2023-06-14T03:31:07;14.20;99.90
51950;DHT22;37974;53.218;6.640;2023-06-14T03:33:34;14.20;99.90
51950;DHT22;37974;53.218;6.640;2023-06-14T03:36:01;14.20;99.90
51950;DHT22;37974;53.218;6.640;2023-06-14T03:38:26;14.20;99.90
51950;DHT22;37974;53.218;6.640;2023-06-14T03:40:52;14.20;99.90
51950;DHT22;37974;53.218;6.640;2023-06-14T03:43:18;14.20;99.90
51950;DHT22;37974;53.218;6.640;2023-06-14T03:45:44;14.20;99.90
51950;DHT22;37974;53.218;6.640;2023-06-14T03:48:10;14.30;99.90
51950;DHT22;37974;53.218;6.640;2023-06-14T03:50:36;14.30;99.90
51950;DHT22;37974;53.218;6.640;2023-06-14T03:53:04;14.30;99.90
51950;DHT22;37974;53.218;6.640;2023-06-14T03:55:30;14.30;99.90
51950;DHT22;37974;53.218;6.640;2023-06-14T03:57:57;14.30;99.90
51950;DHT22;37974;53.218;6.640;2023-06-14T04:00:23;14.30;99.90
51950;DHT22;37974;53.218;6.640;2023-06-14T04:02:48;14.30;99.90
51950;DHT22;37974;53.218;6.640;2023-06-14T04:05:14;14.30;99.90
51950;DHT22;37974;53.218;6.640;2023-06-14T04:07:42;14.40;99.90
51950;DHT22;37974;53.218;6.640;2023-06-14T04:10:11;14.40;99.90
51950;DHT22;37974;53.218;6.640;2023-06-14T04:12:37;14.50;99.90
51950;DHT22;37974;53.218;6.640;2023-06-14T04:15:03;14.50;99.90
51950;DHT22;37974;53.218;6.640;2023-06-14T04:17:40;14.50;99.90
51950;DHT22;37974;53.218;6.640;2023-06-14T04:20:11;14.50;99.90
51950;DHT22;37974;53.218;6.640;2023-06-14T04:22:37;14.50;99.90
51950;DHT22;37974;53.218;6.640;2023-06-14T04:25:03;14.50;99.90
51950;DHT22;37974;53.218;6.640;2023-06-14T04:27:32;14.60;99.90
51950;DHT22;37974;53.218;6.640;2023-06-14T04:30:00;14.60;99.90
51950;DHT22;37974;53.218;6.640;2023-06-14T04:32:28;14.70;99.90
51950;DHT22;37974;53.218;6.640;2023-06-14T04:34:56;14.70;99.90
51950;DHT22;37974;53.218;6.640;2023-06-14T04:37:23;14.70;99.90
51950;DHT22;37974;53.218;6.640;2023-06-14T04:39:49;14.80;99.90
51950;DHT22;37974;53.218;6.640;2023-06-14T04:42:16;14.80;99.90
51950;DHT22;37974;53.218;6.640;2023-06-14T04:44:42;14.90;99.90
51950;DHT22;37974;53.218;6.640;2023-06-14T04:47:10;14.90;99.90
51950;DHT22;37974;53.218;6.640;2023-06-14T04:49:38;15.00;99.90
51950;DHT22;37974;53.218;6.640;2023-06-14T04:52:06;15.00;99.90
51950;DHT22;37974;53.218;6.640;2023-06-14T04:54:32;15.00;99.90
51950;DHT22;37974;53.218;6.640;2023-06-14T04:56:59;15.10;99.90
51950;DHT22;37974;53.218;6.640;2023-06-14T04:59:25;15.10;99.90
51950;DHT22;37974;53.218;6.640;2023-06-14T05:01:52;15.30;99.90
51950;DHT22;37974;53.218;6.640;2023-06-14T05:04:19;15.30;99.90
51950;DHT22;37974;53.218;6.640;2023-06-14T05:06:50;15.40;99.90
51950;DHT22;37974;53.218;6.640;2023-06-14T05:09:19;15.80;99.90
51950;DHT22;37974;53.218;6.640;2023-06-14T05:11:45;15.60;99.90
51950;DHT22;37974;53.218;6.640;2023-06-14T05:14:11;15.60;99.90
51950;DHT22;37974;53.218;6.640;2023-06-14T05:16:37;15.70;99.90
51950;DHT22;37974;53.218;6.640;2023-06-14T05:19:04;15.80;99.90
51950;DHT22;37974;53.218;6.640;2023-06-14T05:21:30;15.70;99.90
51950;DHT22;37974;53.218;6.640;2023-06-14T05:23:57;15.90;99.90
51950;DHT22;37974;53.218;6.640;2023-06-14T05:26:23;16.00;99.90
51950;DHT22;37974;53.218;6.640;2023-06-14T05:28:50;16.00;99.90
51950;DHT22;37974;53.218;6.640;2023-06-14T05:31:18;16.10;99.90
51950;DHT22;37974;53.218;6.640;2023-06-14T05:33:43;16.20;99.90
51950;DHT22;37974;53.218;6.640;2023-06-14T05:36:09;16.20;99.90
51950;DHT22;37974;53.218;6.640;2023-06-14T05:38:35;16.30;99.90
51950;DHT22;37974;53.218;6.640;2023-06-14T05:41:01;16.40;99.90
51950;DHT22;37974;53.218;6.640;2023-06-14T05:43:27;16.50;99.90
51950;DHT22;37974;53.218;6.640;2023-06-14T05:45:53;16.50;99.90
51950;DHT22;37974;53.218;6.640;2023-06-14T05:48:19;16.60;99.90
51950;DHT22;37974;53.218;6.640;2023-06-14T05:50:45;16.70;99.90
51950;DHT22;37974;53.218;6.640;2023-06-14T05:53:11;16.80;99.90
51950;DHT22;37974;53.218;6.640;2023-06-14T05:55:36;16.90;99.90
51950;DHT22;37974;53.218;6.640;2023-06-14T05:58:02;17.00;99.90
51950;DHT22;37974;53.218;6.640;2023-06-14T06:00:54;17.10;99.90
51950;DHT22;37974;53.218;6.640;2023-06-14T06:03:20;17.20;99.90
51950;DHT22;37974;53.218;6.640;2023-06-14T06:05:46;17.30;99.90
51950;DHT22;37974;53.218;6.640;2023-06-14T06:08:12;17.40;99.90
51950;DHT22;37974;53.218;6.640;2023-06-14T06:10:41;17.50;99.90
51950;DHT22;37974;53.218;6.640;2023-06-14T06:13:07;17.60;99.90
51950;DHT22;37974;53.218;6.640;2023-06-14T06:15:33;17.70;99.90
51950;DHT22;37974;53.218;6.640;2023-06-14T06:17:58;17.80;99.90
51950;DHT22;37974;53.218;6.640;2023-06-14T06:20:24;17.90;99.90
51950;DHT22;37974;53.218;6.640;2023-06-14T06:22:57;18.00;99.90
51950;DHT22;37974;53.218;6.640;2023-06-14T06:25:23;18.10;99.90
51950;DHT22;37974;53.218;6.640;2023-06-14T06:27:51;18.30;99.90
51950;DHT22;37974;53.218;6.640;2023-06-14T06:30:18;18.40;99.90
51950;DHT22;37974;53.218;6.640;2023-06-14T06:32:44;18.50;99.90
51950;DHT22;37974;53.218;6.640;2023-06-14T06:35:30;18.60;99.90
51950;DHT22;37974;53.218;6.640;2023-06-14T06:37:56;18.70;99.90
51950;DHT22;37974;53.218;6.640;2023-06-14T06:40:22;18.80;99.90
51950;DHT22;37974;53.218;6.640;2023-06-14T06:42:48;18.90;99.90
51950;DHT22;37974;53.218;6.640;2023-06-14T06:45:24;19.10;99.90
51950;DHT22;37974;53.218;6.640;2023-06-14T06:47:50;19.10;99.90
51950;DHT22;37974;53.218;6.640;2023-06-14T06:50:17;19.20;99.90
51950;DHT22;37974;53.218;6.640;2023-06-14T06:52:43;19.30;99.90
51950;DHT22;37974;53.218;6.640;2023-06-14T06:55:10;19.40;99.90
51950;DHT22;37974;53.218;6.640;2023-06-14T06:57:36;19.50;99.90
51950;DHT22;37974;53.218;6.640;2023-06-14T07:00:02;19.60;99.90
51950;DHT22;37974;53.218;6.640;2023-06-14T07:02:33;19.80;99.90
51950;DHT22;37974;53.218;6.640;2023-06-14T07:05:26;19.80;99.90
51950;DHT22;37974;53.218;6.640;2023-06-14T07:07:48;20.00;99.90
51950;DHT22;37974;53.218;6.640;2023-06-14T07:10:14;20.10;99.90
51950;DHT22;37974;53.218;6.640;2023-06-14T07:12:39;20.20;99.90
51950;DHT22;37974;53.218;6.640;2023-06-14T07:15:09;20.20;99.90
51950;DHT22;37974;53.218;6.640;2023-06-14T07:17:38;20.40;99.90
51950;DHT22;37974;53.218;6.640;2023-06-14T07:20:04;20.50;99.90
51950;DHT22;37974;53.218;6.640;2023-06-14T07:22:36;20.60;99.90
51950;DHT22;37974;53.218;6.640;2023-06-14T07:25:02;20.80;99.90
51950;DHT22;37974;53.218;6.640;2023-06-14T07:27:28;20.90;99.90
51950;DHT22;37974;53.218;6.640;2023-06-14T07:29:54;21.00;99.90
51950;DHT22;37974;53.218;6.640;2023-06-14T07:32:19;21.00;99.90
51950;DHT22;37974;53.218;6.640;2023-06-14T07:34:45;21.10;99.90
51950;DHT22;37974;53.218;6.640;2023-06-14T07:37:11;21.20;99.90
51950;DHT22;37974;53.218;6.640;2023-06-14T07:39:37;21.30;99.90
51950;DHT22;37974;53.218;6.640;2023-06-14T07:42:03;21.30;99.90
51950;DHT22;37974;53.218;6.640;2023-06-14T07:44:30;21.30;99.90
51950;DHT22;37974;53.218;6.640;2023-06-14T07:46:56;21.40;99.90
51950;DHT22;37974;53.218;6.640;2023-06-14T07:49:43;21.50;99.90
51950;DHT22;37974;53.218;6.640;2023-06-14T07:52:12;21.60;99.90
51950;DHT22;37974;53.218;6.640;2023-06-14T07:54:38;21.70;99.90
51950;DHT22;37974;53.218;6.640;2023-06-14T07:57:06;21.80;99.90
51950;DHT22;37974;53.218;6.640;2023-06-14T07:59:32;21.90;99.90
51950;DHT22;37974;53.218;6.640;2023-06-14T08:01:58;22.00;99.90
51950;DHT22;37974;53.218;6.640;2023-06-14T08:04:39;22.00;99.90
51950;DHT22;37974;53.218;6.640;2023-06-14T08:07:06;22.10;99.90
51950;DHT22;37974;53.218;6.640;2023-06-14T08:09:32;22.00;99.90
51950;DHT22;37974;53.218;6.640;2023-06-14T08:11:58;22.00;99.90
51950;DHT22;37974;53.218;6.640;2023-06-14T08:14:24;22.00;99.90
51950;DHT22;37974;53.218;6.640;2023-06-14T08:16:49;22.10;99.90
51950;DHT22;37974;53.218;6.640;2023-06-14T08:19:15;22.10;99.90
51950;DHT22;37974;53.218;6.640;2023-06-14T08:21:42;22.20;99.90
51950;DHT22;37974;53.218;6.640;2023-06-14T08:24:17;22.30;99.90
51950;DHT22;37974;53.218;6.640;2023-06-14T08:26:44;22.30;99.90
51950;DHT22;37974;53.218;6.640;2023-06-14T08:29:16;22.40;99.90
51950;DHT22;37974;53.218;6.640;2023-06-14T08:31:45;22.50;99.90
51950;DHT22;37974;53.218;6.640;2023-06-14T08:34:11;22.60;99.90
51950;DHT22;37974;53.218;6.640;2023-06-14T08:36:36;22.60;99.20
51950;DHT22;37974;53.218;6.640;2023-06-14T08:39:02;22.70;98.60
51950;DHT22;37974;53.218;6.640;2023-06-14T08:41:28;22.70;98.70
51950;DHT22;37974;53.218;6.640;2023-06-14T08:43:56;22.80;98.80
51950;DHT22;37974;53.218;6.640;2023-06-14T08:46:23;22.80;98.30
51950;DHT22;37974;53.218;6.640;2023-06-14T08:48:51;22.90;98.10
51950;DHT22;37974;53.218;6.640;2023-06-14T08:51:19;23.00;98.00
51950;DHT22;37974;53.218;6.640;2023-06-14T08:53:45;23.00;97.80
51950;DHT22;37974;53.218;6.640;2023-06-14T08:56:12;23.10;98.50
51950;DHT22;37974;53.218;6.640;2023-06-14T08:58:42;23.10;98.10
51950;DHT22;37974;53.218;6.640;2023-06-14T09:01:25;23.20;98.10
51950;DHT22;37974;53.218;6.640;2023-06-14T09:03:52;23.20;97.90
51950;DHT22;37974;53.218;6.640;2023-06-14T09:06:21;23.20;97.80
51950;DHT22;37974;53.218;6.640;2023-06-14T09:08:49;23.30;97.60
51950;DHT22;37974;53.218;6.640;2023-06-14T09:11:17;23.30;97.40
51950;DHT22;37974;53.218;6.640;2023-06-14T09:13:44;23.40;97.40
51950;DHT22;37974;53.218;6.640;2023-06-14T09:16:10;23.40;97.20
51950;DHT22;37974;53.218;6.640;2023-06-14T09:18:38;23.40;96.80
51950;DHT22;37974;53.218;6.640;2023-06-14T09:21:08;23.50;97.20
51950;DHT22;37974;53.218;6.640;2023-06-14T09:23:42;23.60;96.90
51950;DHT22;37974;53.218;6.640;2023-06-14T09:26:08;23.60;96.00
51950;DHT22;37974;53.218;6.640;2023-06-14T09:28:46;23.70;96.20
51950;DHT22;37974;53.218;6.640;2023-06-14T09:31:13;23.70;96.20
51950;DHT22;37974;53.218;6.640;2023-06-14T09:33:42;23.80;96.30
51950;DHT22;37974;53.218;6.640;2023-06-14T09:36:21;23.90;96.20
51950;DHT22;37974;53.218;6.640;2023-06-14T09:38:53;24.00;95.80
51950;DHT22;37974;53.218;6.640;2023-06-14T09:41:19;24.00;95.50
51950;DHT22;37974;53.218;6.640;2023-06-14T09:43:46;23.90;95.10
51950;DHT22;37974;53.218;6.640;2023-06-14T09:46:13;23.90;95.90
51950;DHT22;37974;53.218;6.640;2023-06-14T09:48:39;23.90;95.30
51950;DHT22;37974;53.218;6.640;2023-06-14T09:51:13;24.00;95.40
51950;DHT22;37974;53.218;6.640;2023-06-14T09:53:41;24.10;94.90
51950;DHT22;37974;53.218;6.640;2023-06-14T09:56:09;24.10;94.70
51950;DHT22;37974;53.218;6.640;2023-06-14T09:58:37;24.20;94.20
51950;DHT22;37974;53.218;6.640;2023-06-14T10:01:05;24.20;94.00
51950;DHT22;37974;53.218;6.640;2023-06-14T10:03:38;24.20;93.90
51950;DHT22;37974;53.218;6.640;2023-06-14T10:06:07;24.20;93.30
51950;DHT22;37974;53.218;6.640;2023-06-14T10:08:36;24.30;93.70
51950;DHT22;37974;53.218;6.640;2023-06-14T10:11:02;24.30;93.70
51950;DHT22;37974;53.218;6.640;2023-06-14T10:13:42;24.40;94.10
51950;DHT22;37974;53.218;6.640;2023-06-14T10:16:27;24.50;93.90
51950;DHT22;37974;53.218;6.640;2023-06-14T10:19:17;24.50;93.40
51950;DHT22;37974;53.218;6.640;2023-06-14T10:22:02;24.60;93.10
51950;DHT22;37974;53.218;6.640;2023-06-14T10:24:41;24.70;92.70
51950;DHT22;37974;53.218;6.640;2023-06-14T10:27:08;24.60;92.40
51950;DHT22;37974;53.218;6.640;2023-06-14T10:32:22;24.60;92.30
51950;DHT22;37974;53.218;6.640;2023-06-14T10:34:56;24.70;92.40
51950;DHT22;37974;53.218;6.640;2023-06-14T10:37:33;24.80;92.10
51950;DHT22;37974;53.218;6.640;2023-06-14T10:39:59;24.80;92.10
51950;DHT22;37974;53.218;6.640;2023-06-14T10:42:33;24.90;92.30
51950;DHT22;37974;53.218;6.640;2023-06-14T10:44:59;25.10;93.70
51950;DHT22;37974;53.218;6.640;2023-06-14T10:47:30;25.10;92.60
51950;DHT22;37974;53.218;6.640;2023-06-14T10:50:06;25.00;91.90
51950;DHT22;37974;53.218;6.640;2023-06-14T10:52:34;25.10;92.10
51950;DHT22;37974;53.218;6.640;2023-06-14T10:55:08;25.20;91.90
51950;DHT22;37974;53.218;6.640;2023-06-14T10:57:44;25.30;91.30
51950;DHT22;37974;53.218;6.640;2023-06-14T11:00:13;25.30;91.30
51950;DHT22;37974;53.218;6.640;2023-06-14T11:03:06;25.40;92.20
51950;DHT22;37974;53.218;6.640;2023-06-14T11:05:50;25.50;91.40
51950;DHT22;37974;53.218;6.640;2023-06-14T11:08:27;25.70;91.10
51950;DHT22;37974;53.218;6.640;2023-06-14T11:10:57;25.70;90.60
51950;DHT22;37974;53.218;6.640;2023-06-14T11:13:26;25.80;90.50
51950;DHT22;37974;53.218;6.640;2023-06-14T11:15:52;25.80;90.00
51950;DHT22;37974;53.218;6.640;2023-06-14T11:18:21;25.80;90.50
51950;DHT22;37974;53.218;6.640;2023-06-14T11:20:50;25.90;91.00
51950;DHT22;37974;53.218;6.640;2023-06-14T11:23:15;25.90;90.20
51950;DHT22;37974;53.218;6.640;2023-06-14T11:25:41;25.80;89.50
51950;DHT22;37974;53.218;6.640;2023-06-14T11:28:07;25.70;89.20
51950;DHT22;37974;53.218;6.640;2023-06-14T11:30:33;25.70;88.80
51950;DHT22;37974;53.218;6.640;2023-06-14T11:32:59;25.90;90.10
51950;DHT22;37974;53.218;6.640;2023-06-14T11:35:26;25.80;88.70
51950;DHT22;37974;53.218;6.640;2023-06-14T11:37:53;25.90;88.50
51950;DHT22;37974;53.218;6.640;2023-06-14T11:40:24;25.90;87.10
51950;DHT22;37974;53.218;6.640;2023-06-14T11:42:50;26.00;87.30
51950;DHT22;37974;53.218;6.640;2023-06-14T11:45:15;26.20;86.20
51950;DHT22;37974;53.218;6.640;2023-06-14T11:47:44;26.10;85.20
51950;DHT22;37974;53.218;6.640;2023-06-14T11:50:13;26.10;84.40
51950;DHT22;37974;53.218;6.640;2023-06-14T11:52:39;26.10;84.50
51950;DHT22;37974;53.218;6.640;2023-06-14T11:55:06;26.00;84.40
51950;DHT22;37974;53.218;6.640;2023-06-14T11:57:35;26.00;84.80
51950;DHT22;37974;53.218;6.640;2023-06-14T12:00:03;26.10;84.10
51950;DHT22;37974;53.218;6.640;2023-06-14T12:02:33;26.20;83.70
51950;DHT22;37974;53.218;6.640;2023-06-14T12:05:04;26.30;84.00
51950;DHT22;37974;53.218;6.640;2023-06-14T12:07:33;26.00;82.70
51950;DHT22;37974;53.218;6.640;2023-06-14T12:12:25;25.80;83.70
51950;DHT22;37974;53.218;6.640;2023-06-14T12:14:52;26.00;83.80
51950;DHT22;37974;53.218;6.640;2023-06-14T12:17:19;26.20;83.00
51950;DHT22;37974;53.218;6.640;2023-06-14T12:19:46;26.10;82.80
51950;DHT22;37974;53.218;6.640;2023-06-14T12:22:15;26.10;82.10
51950;DHT22;37974;53.218;6.640;2023-06-14T12:24:44;26.10;83.10
51950;DHT22;37974;53.218;6.640;2023-06-14T12:27:11;26.00;82.10
51950;DHT22;37974;53.218;6.640;2023-06-14T12:29:41;25.90;84.00
51950;DHT22;37974;53.218;6.640;2023-06-14T12:32:09;26.00;83.40
51950;DHT22;37974;53.218;6.640;2023-06-14T12:34:35;26.20;84.10
51950;DHT22;37974;53.218;6.640;2023-06-14T12:37:02;26.30;82.50
51950;DHT22;37974;53.218;6.640;2023-06-14T12:39:30;26.10;81.80
51950;DHT22;37974;53.218;6.640;2023-06-14T12:41:57;25.90;83.10
51950;DHT22;37974;53.218;6.640;2023-06-14T12:44:23;25.90;83.00
51950;DHT22;37974;53.218;6.640;2023-06-14T12:46:49;26.00;82.10
51950;DHT22;37974;53.218;6.640;2023-06-14T12:49:25;26.10;83.30
51950;DHT22;37974;53.218;6.640;2023-06-14T12:51:51;26.20;82.50
51950;DHT22;37974;53.218;6.640;2023-06-14T12:54:17;26.30;81.70
51950;DHT22;37974;53.218;6.640;2023-06-14T12:56:43;26.30;81.00
51950;DHT22;37974;53.218;6.640;2023-06-14T12:59:10;26.40;81.00
51950;DHT22;37974;53.218;6.640;2023-06-14T13:01:38;26.50;80.70
51950;DHT22;37974;53.218;6.640;2023-06-14T13:04:05;26.70;81.00
51950;DHT22;37974;53.218;6.640;2023-06-14T13:06:31;26.80;80.70
51950;DHT22;37974;53.218;6.640;2023-06-14T13:08:56;26.80;80.20
51950;DHT22;37974;53.218;6.640;2023-06-14T13:11:24;26.70;80.50
51950;DHT22;37974;53.218;6.640;2023-06-14T13:13:50;26.50;80.20
51950;DHT22;37974;53.218;6.640;2023-06-14T13:16:16;26.40;79.50
51950;DHT22;37974;53.218;6.640;2023-06-14T13:18:42;26.20;79.40
51950;DHT22;37974;53.218;6.640;2023-06-14T13:21:07;26.20;79.70
51950;DHT22;37974;53.218;6.640;2023-06-14T13:23:33;26.30;80.30
51950;DHT22;37974;53.218;6.640;2023-06-14T13:25:59;26.40;80.10
51950;DHT22;37974;53.218;6.640;2023-06-14T13:28:34;26.40;79.80
51950;DHT22;37974;53.218;6.640;2023-06-14T13:31:03;26.50;80.60
51950;DHT22;37974;53.218;6.640;2023-06-14T13:33:29;26.60;81.10
51950;DHT22;37974;53.218;6.640;2023-06-14T13:38:55;26.60;80.40
51950;DHT22;37974;53.218;6.640;2023-06-14T13:41:42;26.70;78.90
51950;DHT22;37974;53.218;6.640;2023-06-14T13:44:08;26.60;78.10
51950;DHT22;37974;53.218;6.640;2023-06-14T13:46:36;26.40;77.80
51950;DHT22;37974;53.218;6.640;2023-06-14T13:49:03;26.40;78.10
51950;DHT22;37974;53.218;6.640;2023-06-14T13:51:31;26.50;78.30
51950;DHT22;37974;53.218;6.640;2023-06-14T13:53:58;26.50;78.20
51950;DHT22;37974;53.218;6.640;2023-06-14T13:56:24;26.50;78.50
51950;DHT22;37974;53.218;6.640;2023-06-14T13:58:50;26.50;77.90
51950;DHT22;37974;53.218;6.640;2023-06-14T14:01:17;26.50;77.50
51950;DHT22;37974;53.218;6.640;2023-06-14T14:03:45;26.40;77.90
51950;DHT22;37974;53.218;6.640;2023-06-14T14:06:11;26.20;78.20
51950;DHT22;37974;53.218;6.640;2023-06-14T14:08:37;26.10;77.80
51950;DHT22;37974;53.218;6.640;2023-06-14T14:11:05;26.20;78.00
51950;DHT22;37974;53.218;6.640;2023-06-14T14:13:31;26.30;78.60
51950;DHT22;37974;53.218;6.640;2023-06-14T14:15:57;26.20;78.10
51950;DHT22;37974;53.218;6.640;2023-06-14T14:18:23;26.20;77.60
51950;DHT22;37974;53.218;6.640;2023-06-14T14:20:48;26.30;78.40
51950;DHT22;37974;53.218;6.640;2023-06-14T14:23:14;26.30;77.50
51950;DHT22;37974;53.218;6.640;2023-06-14T14:25:40;26.20;76.70
51950;DHT22;37974;53.218;6.640;2023-06-14T14:28:06;26.20;76.60
51950;DHT22;37974;53.218;6.640;2023-06-14T14:30:32;26.20;76.70
51950;DHT22;37974;53.218;6.640;2023-06-14T14:32:58;26.30;76.90
51950;DHT22;37974;53.218;6.640;2023-06-14T14:35:24;26.20;76.90
51950;DHT22;37974;53.218;6.640;2023-06-14T14:37:52;25.90;76.30
51950;DHT22;37974;53.218;6.640;2023-06-14T14:40:18;25.60;76.20
51950;DHT22;37974;53.218;6.640;2023-06-14T14:42:43;25.70;76.20
51950;DHT22;37974;53.218;6.640;2023-06-14T14:45:09;25.80;77.20
51950;DHT22;37974;53.218;6.640;2023-06-14T14:47:35;26.00;77.70
51950;DHT22;37974;53.218;6.640;2023-06-14T14:50:01;26.20;77.50
51950;DHT22;37974;53.218;6.640;2023-06-14T14:52:27;26.40;76.30
51950;DHT22;37974;53.218;6.640;2023-06-14T14:54:53;26.70;76.60
51950;DHT22;37974;53.218;6.640;2023-06-14T14:57:19;26.90;76.00
51950;DHT22;37974;53.218;6.640;2023-06-14T14:59:45;27.20;76.40
51950;DHT22;37974;53.218;6.640;2023-06-14T15:02:11;27.40;76.00
51950;DHT22;37974;53.218;6.640;2023-06-14T15:04:37;27.40;75.90
51950;DHT22;37974;53.218;6.640;2023-06-14T15:07:03;27.20;75.30
51950;DHT22;37974;53.218;6.640;2023-06-14T15:09:30;26.90;75.40
51950;DHT22;37974;53.218;6.640;2023-06-14T15:11:55;26.60;76.70
51950;DHT22;37974;53.218;6.640;2023-06-14T15:14:21;26.50;75.90
51950;DHT22;37974;53.218;6.640;2023-06-14T15:16:47;26.50;76.10
51950;DHT22;37974;53.218;6.640;2023-06-14T15:19:13;26.50;76.30
51950;DHT22;37974;53.218;6.640;2023-06-14T15:21:38;26.50;76.80
51950;DHT22;37974;53.218;6.640;2023-06-14T15:24:04;26.50;76.90
51950;DHT22;37974;53.218;6.640;2023-06-14T15:26:30;26.40;75.80
51950;DHT22;37974;53.218;6.640;2023-06-14T15:28:56;26.40;76.10
51950;DHT22;37974;53.218;6.640;2023-06-14T15:31:22;26.40;76.30
51950;DHT22;37974;53.218;6.640;2023-06-14T15:33:49;26.60;78.10
51950;DHT22;37974;53.218;6.640;2023-06-14T15:36:15;26.80;76.20
51950;DHT22;37974;53.218;6.640;2023-06-14T15:38:40;26.70;75.60
51950;DHT22;37974;53.218;6.640;2023-06-14T15:41:06;26.70;75.90
51950;DHT22;37974;53.218;6.640;2023-06-14T15:43:33;26.90;76.20